sensor_id;sensor_type;location;lat;lon;timestamp;pressure;altitude;pressure_sealevel;temperature;humidity
64189;BME280;50493;50.970;10.082;2023-05-09T00:02:04;99665.72;;;16.27;49.70
64189;BME280;50493;50.970;10.082;2023-05-09T00:04:30;99656.97;;;16.25;49.83
64189;BME280;50493;50.970;10.082;2023-05-09T00:06:56;99670.00;;;16.07;50.13
64189;BME280;50493;50.970;10.082;2023-05-09T00:09:22;99665.69;;;16.05;50.15
64189;BME280;50493;50.970;10.082;2023-05-09T00:11:47;99664.84;;;16.04;49.87
64189;BME280;50493;50.970;10.082;2023-05-09T00:14:12;99664.94;;;16.01;50.07
64189;BME280;50493;50.970;10.082;2023-05-09T00:16:39;99668.00;;;15.90;50.17
64189;BME280;50493;50.970;10.082;2023-05-09T00:19:04;99659.31;;;15.88;50.05
64189;BME280;50493;50.970;10.082;2023-05-09T00:21:31;99662.13;;;15.83;50.05
64189;BME280;50493;50.970;10.082;2023-05-09T00:23:56;99667.84;;;15.71;50.29
64189;BME280;50493;50.970;10.082;2023-05-09T00:26:22;99666.00;;;15.73;50.20
64189;BME280;50493;50.970;10.082;2023-05-09T00:28:47;99657.84;;;15.57;50.63
64189;BME280;50493;50.970;10.082;2023-05-09T00:31:13;99658.69;;;15.58;50.54
64189;BME280;50493;50.970;10.082;2023-05-09T00:33:39;99658.59;;;15.61;50.11
64189;BME280;50493;50.970;10.082;2023-05-09T00:36:05;99651.16;;;15.48;50.35
64189;BME280;50493;50.970;10.082;2023-05-09T00:38:31;99647.19;;;15.37;50.78
64189;BME280;50493;50.970;10.082;2023-05-09T00:40:56;99643.81;;;15.33;50.83
64189;BME280;50493;50.970;10.082;2023-05-09T00:43:22;99634.44;;;15.26;50.69
64189;BME280;50493;50.970;10.082;2023-05-09T00:45:47;99636.59;;;15.14;51.08
64189;BME280;50493;50.970;10.082;2023-05-09T00:48:13;99629.50;;;15.16;50.91
64189;BME280;50493;50.970;10.082;2023-05-09T00:50:40;99634.13;;;15.10;50.91
64189;BME280;50493;50.970;10.082;2023-05-09T00:53:05;99632.06;;;14.94;51.24
64189;BME280;50493;50.970;10.082;2023-05-09T00:55:32;99633.81;;;14.94;51.14
64189;BME280;50493;50.970;10.082;2023-05-09T00:57:57;99627.81;;;14.89;51.38
64189;BME280;50493;50.970;10.082;2023-05-09T01:00:22;99625.19;;;14.89;51.44
64189;BME280;50493;50.970;10.082;2023-05-09T01:02:50;99618.44;;;14.81;51.12
64189;BME280;50493;50.970;10.082;2023-05-09T01:05:17;99621.00;;;14.83;51.22
64189;BME280;50493;50.970;10.082;2023-05-09T01:07:49;99622.78;;;14.82;50.91
64189;BME280;50493;50.970;10.082;2023-05-09T01:10:22;99615.84;;;14.80;50.96
64189;BME280;50493;50.970;10.082;2023-05-09T01:12:54;99612.00;;;14.65;51.47
64189;BME280;50493;50.970;10.082;2023-05-09T01:15:27;99613.50;;;14.72;51.11
64189;BME280;50493;50.970;10.082;2023-05-09T01:17:58;99616.66;;;14.57;51.56
64189;BME280;50493;50.970;10.082;2023-05-09T01:20:29;99610.44;;;14.59;51.20
64189;BME280;50493;50.970;10.082;2023-05-09T01:23:11;99612.53;;;14.49;51.43
64189;BME280;50493;50.970;10.082;2023-05-09T01:25:54;99602.34;;;14.40;51.58
64189;BME280;50493;50.970;10.082;2023-05-09T01:28:35;99603.34;;;14.36;51.46
64189;BME280;50493;50.970;10.082;2023-05-09T01:31:04;99610.66;;;14.26;51.74
64189;BME280;50493;50.970;10.082;2023-05-09T01:33:32;99606.53;;;14.19;52.06
64189;BME280;50493;50.970;10.082;2023-05-09T01:36:03;99608.25;;;14.20;51.68
64189;BME280;50493;50.970;10.082;2023-05-09T01:38:30;99611.38;;;14.31;51.13
64189;BME280;50493;50.970;10.082;2023-05-09T01:40:57;99602.78;;;14.26;51.09
64189;BME280;50493;50.970;10.082;2023-05-09T01:43:26;99611.44;;;14.30;51.07
64189;BME280;50493;50.970;10.082;2023-05-09T01:45:53;99611.53;;;14.27;50.88
64189;BME280;50493;50.970;10.082;2023-05-09T01:48:20;99604.97;;;14.13;51.42
64189;BME280;50493;50.970;10.082;2023-05-09T01:50:51;99606.69;;;14.14;51.30
64189;BME280;50493;50.970;10.082;2023-05-09T01:53:18;99613.16;;;14.04;51.27
64189;BME280;50493;50.970;10.082;2023-05-09T01:55:46;99615.28;;;13.93;51.69
64189;BME280;50493;50.970;10.082;2023-05-09T01:58:13;99611.78;;;13.92;51.76
64189;BME280;50493;50.970;10.082;2023-05-09T02:00:40;99612.06;;;13.81;51.92
64189;BME280;50493;50.970;10.082;2023-05-09T02:03:06;99601.91;;;13.71;52.32
64189;BME280;50493;50.970;10.082;2023-05-09T02:05:33;99608.09;;;13.68;51.78
64189;BME280;50493;50.970;10.082;2023-05-09T02:07:59;99601.16;;;13.67;52.17
64189;BME280;50493;50.970;10.082;2023-05-09T02:10:25;99594.34;;;13.60;52.31
64189;BME280;50493;50.970;10.082;2023-05-09T02:12:51;99591.88;;;13.55;52.26
64189;BME280;50493;50.970;10.082;2023-05-09T02:15:16;99588.44;;;13.53;51.95
64189;BME280;50493;50.970;10.082;2023-05-09T02:17:42;99587.69;;;13.48;52.06
64189;BME280;50493;50.970;10.082;2023-05-09T02:20:08;99583.38;;;13.47;52.39
64189;BME280;50493;50.970;10.082;2023-05-09T02:22:40;99586.97;;;13.44;52.18
64189;BME280;50493;50.970;10.082;2023-05-09T02:25:08;99591.47;;;13.39;52.17
64189;BME280;50493;50.970;10.082;2023-05-09T02:27:37;99593.28;;;13.37;51.90
64189;BME280;50493;50.970;10.082;2023-05-09T02:30:07;99595.09;;;13.35;52.37
64189;BME280;50493;50.970;10.082;2023-05-09T02:32:34;99594.38;;;13.30;52.28
64189;BME280;50493;50.970;10.082;2023-05-09T02:35:02;99593.84;;;13.19;52.75
64189;BME280;50493;50.970;10.082;2023-05-09T02:37:28;99598.19;;;13.20;52.55
64189;BME280;50493;50.970;10.082;2023-05-09T02:39:55;99592.38;;;13.08;52.42
64189;BME280;50493;50.970;10.082;2023-05-09T02:42:22;99592.22;;;13.14;52.24
64189;BME280;50493;50.970;10.082;2023-05-09T02:44:49;99598.22;;;13.18;52.34
64189;BME280;50493;50.970;10.082;2023-05-09T02:47:14;99587.88;;;13.13;52.07
64189;BME280;50493;50.970;10.082;2023-05-09T02:49:40;99582.66;;;13.12;52.16
64189;BME280;50493;50.970;10.082;2023-05-09T02:52:05;99587.19;;;13.07;52.29
64189;BME280;50493;50.970;10.082;2023-05-09T02:54:30;99589.22;;;12.97;52.10
64189;BME280;50493;50.970;10.082;2023-05-09T02:56:57;99587.47;;;12.96;52.57
64189;BME280;50493;50.970;10.082;2023-05-09T02:59:23;99576.22;;;12.92;52.46
64189;BME280;50493;50.970;10.082;2023-05-09T03:01:48;99581.69;;;12.85;52.65
64189;BME280;50493;50.970;10.082;2023-05-09T03:04:14;99580.88;;;12.82;52.68
64189;BME280;50493;50.970;10.082;2023-05-09T03:06:40;99572.25;;;12.76;52.71
64189;BME280;50493;50.970;10.082;2023-05-09T03:09:06;99574.88;;;12.76;52.63
64189;BME280;50493;50.970;10.082;2023-05-09T03:11:31;99568.78;;;12.75;52.61
64189;BME280;50493;50.970;10.082;2023-05-09T03:13:58;99568.88;;;12.72;52.60
64189;BME280;50493;50.970;10.082;2023-05-09T03:16:23;99570.84;;;12.64;52.87
64189;BME280;50493;50.970;10.082;2023-05-09T03:18:48;99576.25;;;12.58;52.84
64189;BME280;50493;50.970;10.082;2023-05-09T03:21:14;99571.16;;;12.52;53.08
64189;BME280;50493;50.970;10.082;2023-05-09T03:23:40;99572.91;;;12.53;52.87
64189;BME280;50493;50.970;10.082;2023-05-09T03:26:05;99569.47;;;12.51;53.04
64189;BME280;50493;50.970;10.082;2023-05-09T03:28:30;99566.97;;;12.46;52.70
64189;BME280;50493;50.970;10.082;2023-05-09T03:30:57;99564.94;;;12.56;52.65
64189;BME280;50493;50.970;10.082;2023-05-09T03:33:22;99566.81;;;12.52;52.38
64189;BME280;50493;50.970;10.082;2023-05-09T03:35:48;99573.03;;;12.46;52.47
64189;BME280;50493;50.970;10.082;2023-05-09T03:38:13;99578.28;;;12.46;52.44
64189;BME280;50493;50.970;10.082;2023-05-09T03:40:39;99577.53;;;12.43;52.46
64189;BME280;50493;50.970;10.082;2023-05-09T03:43:04;99569.78;;;12.38;52.31
64189;BME280;50493;50.970;10.082;2023-05-09T03:45:29;99574.97;;;12.41;52.22
64189;BME280;50493;50.970;10.082;2023-05-09T03:47:56;99574.16;;;12.38;52.33
64189;BME280;50493;50.970;10.082;2023-05-09T03:50:22;99573.31;;;12.37;52.31
64189;BME280;50493;50.970;10.082;2023-05-09T03:52:47;99568.44;;;12.22;52.67
64189;BME280;50493;50.970;10.082;2023-05-09T03:55:12;99571.97;;;12.21;52.91
64189;BME280;50493;50.970;10.082;2023-05-09T03:57:38;99565.09;;;12.16;52.78
64189;BME280;50493;50.970;10.082;2023-05-09T04:00:04;99573.00;;;12.15;52.63
64189;BME280;50493;50.970;10.082;2023-05-09T04:02:31;99569.44;;;12.18;52.45
64189;BME280;50493;50.970;10.082;2023-05-09T04:04:59;99568.44;;;12.22;52.28
64189;BME280;50493;50.970;10.082;2023-05-09T04:07:24;99566.81;;;12.18;52.50
64189;BME280;50493;50.970;10.082;2023-05-09T04:09:50;99566.81;;;12.18;52.35
64189;BME280;50493;50.970;10.082;2023-05-09T04:12:16;99557.16;;;12.20;52.03
64189;BME280;50493;50.970;10.082;2023-05-09T04:14:41;99562.38;;;12.21;51.86
64189;BME280;50493;50.970;10.082;2023-05-09T04:17:07;99558.06;;;12.19;51.81
64189;BME280;50493;50.970;10.082;2023-05-09T04:19:32;99557.94;;;12.23;51.66
64189;BME280;50493;50.970;10.082;2023-05-09T04:21:59;99553.38;;;12.30;51.39
64189;BME280;50493;50.970;10.082;2023-05-09T04:24:24;99552.78;;;12.53;50.64
64189;BME280;50493;50.970;10.082;2023-05-09T04:26:50;99548.28;;;13.49;48.35
64189;BME280;50493;50.970;10.082;2023-05-09T04:29:16;99540.25;;;14.09;46.36
64189;BME280;50493;50.970;10.082;2023-05-09T04:31:41;99534.78;;;14.66;44.87
64189;BME280;50493;50.970;10.082;2023-05-09T04:34:06;99537.44;;;14.90;44.08
64189;BME280;50493;50.970;10.082;2023-05-09T04:36:32;99536.56;;;15.37;42.93
64189;BME280;50493;50.970;10.082;2023-05-09T04:38:59;99548.50;;;15.45;42.60
64189;BME280;50493;50.970;10.082;2023-05-09T04:41:24;99541.41;;;15.47;42.42
64189;BME280;50493;50.970;10.082;2023-05-09T04:43:50;99540.13;;;15.80;41.73
64189;BME280;50493;50.970;10.082;2023-05-09T04:46:16;99538.28;;;16.04;40.94
64189;BME280;50493;50.970;10.082;2023-05-09T04:48:41;99532.34;;;16.19;40.83
64189;BME280;50493;50.970;10.082;2023-05-09T04:51:07;99533.00;;;16.45;39.90
64189;BME280;50493;50.970;10.082;2023-05-09T04:53:32;99529.06;;;16.35;40.26
64189;BME280;50493;50.970;10.082;2023-05-09T04:55:59;99521.22;;;16.73;39.38
64189;BME280;50493;50.970;10.082;2023-05-09T04:58:25;99522.34;;;17.26;38.20
64189;BME280;50493;50.970;10.082;2023-05-09T05:00:50;99520.63;;;17.06;38.33
64189;BME280;50493;50.970;10.082;2023-05-09T05:03:16;99516.41;;;17.40;38.56
64189;BME280;50493;50.970;10.082;2023-05-09T05:05:42;99516.91;;;17.29;38.31
64189;BME280;50493;50.970;10.082;2023-05-09T05:08:07;99517.34;;;17.20;38.38
64189;BME280;50493;50.970;10.082;2023-05-09T05:10:32;99522.00;;;17.34;37.97
64189;BME280;50493;50.970;10.082;2023-05-09T05:12:59;99517.66;;;17.69;37.49
64189;BME280;50493;50.970;10.082;2023-05-09T05:15:25;99517.44;;;17.92;37.89
64189;BME280;50493;50.970;10.082;2023-05-09T05:17:51;99517.78;;;17.85;37.21
64189;BME280;50493;50.970;10.082;2023-05-09T05:20:16;99518.63;;;17.86;37.04
64189;BME280;50493;50.970;10.082;2023-05-09T05:22:42;99519.81;;;18.15;36.38
64189;BME280;50493;50.970;10.082;2023-05-09T05:25:07;99520.19;;;18.76;36.08
64189;BME280;50493;50.970;10.082;2023-05-09T05:27:33;99512.81;;;19.31;35.24
64189;BME280;50493;50.970;10.082;2023-05-09T05:30:00;99511.03;;;19.47;33.86
64189;BME280;50493;50.970;10.082;2023-05-09T05:32:25;99508.63;;;19.89;33.91
64189;BME280;50493;50.970;10.082;2023-05-09T05:34:50;99505.53;;;19.97;32.68
64189;BME280;50493;50.970;10.082;2023-05-09T05:37:16;99504.69;;;19.66;33.47
64189;BME280;50493;50.970;10.082;2023-05-09T05:39:41;99500.81;;;20.02;32.78
64189;BME280;50493;50.970;10.082;2023-05-09T05:42:06;99502.81;;;19.68;33.56
64189;BME280;50493;50.970;10.082;2023-05-09T05:44:32;99491.50;;;19.32;34.01
64189;BME280;50493;50.970;10.082;2023-05-09T05:46:58;99489.97;;;19.28;34.14
64189;BME280;50493;50.970;10.082;2023-05-09T05:49:24;99496.00;;;20.09;32.92
64189;BME280;50493;50.970;10.082;2023-05-09T05:51:49;99492.19;;;20.29;32.99
64189;BME280;50493;50.970;10.082;2023-05-09T05:54:14;99488.03;;;20.25;32.66
64189;BME280;50493;50.970;10.082;2023-05-09T05:56:40;99473.63;;;20.72;31.67
64189;BME280;50493;50.970;10.082;2023-05-09T05:59:05;99476.41;;;21.12;31.14
64189;BME280;50493;50.970;10.082;2023-05-09T06:01:30;99465.41;;;21.18;30.95
64189;BME280;50493;50.970;10.082;2023-05-09T06:03:57;99467.88;;;21.07;30.66
64189;BME280;50493;50.970;10.082;2023-05-09T06:06:23;99467.56;;;21.94;29.74
64189;BME280;50493;50.970;10.082;2023-05-09T06:08:50;99461.84;;;22.13;29.41
64189;BME280;50493;50.970;10.082;2023-05-09T06:11:15;99461.72;;;22.01;29.45
64189;BME280;50493;50.970;10.082;2023-05-09T06:13:40;99459.16;;;22.00;29.13
64189;BME280;50493;50.970;10.082;2023-05-09T06:16:07;99454.75;;;21.73;30.49
64189;BME280;50493;50.970;10.082;2023-05-09T06:18:33;99462.78;;;21.59;30.23
64189;BME280;50493;50.970;10.082;2023-05-09T06:21:01;99461.84;;;22.26;29.14
64189;BME280;50493;50.970;10.082;2023-05-09T06:23:26;99454.81;;;22.25;30.23
64189;BME280;50493;50.970;10.082;2023-05-09T06:25:51;99458.03;;;22.55;28.38
64189;BME280;50493;50.970;10.082;2023-05-09T06:28:17;99457.16;;;22.68;28.52
64189;BME280;50493;50.970;10.082;2023-05-09T06:30:42;99451.50;;;22.60;28.57
64189;BME280;50493;50.970;10.082;2023-05-09T06:33:08;99450.44;;;21.98;29.95
64189;BME280;50493;50.970;10.082;2023-05-09T06:35:33;99442.31;;;23.27;28.40
64189;BME280;50493;50.970;10.082;2023-05-09T06:38:00;99443.88;;;23.05;27.95
64189;BME280;50493;50.970;10.082;2023-05-09T06:40:25;99434.50;;;22.86;28.69
64189;BME280;50493;50.970;10.082;2023-05-09T06:42:50;99433.28;;;23.76;28.49
64189;BME280;50493;50.970;10.082;2023-05-09T06:45:16;99432.06;;;23.45;28.08
64189;BME280;50493;50.970;10.082;2023-05-09T06:47:41;99428.00;;;23.28;28.10
64189;BME280;50493;50.970;10.082;2023-05-09T06:50:07;99427.56;;;22.97;27.96
64189;BME280;50493;50.970;10.082;2023-05-09T06:52:33;99428.97;;;23.98;27.41
64189;BME280;50493;50.970;10.082;2023-05-09T06:54:59;99423.88;;;23.95;28.66
64189;BME280;50493;50.970;10.082;2023-05-09T06:57:25;99419.75;;;24.02;27.11
64189;BME280;50493;50.970;10.082;2023-05-09T06:59:50;99403.56;;;24.62;26.64
64189;BME280;50493;50.970;10.082;2023-05-09T07:02:15;99407.84;;;24.97;26.82
64189;BME280;50493;50.970;10.082;2023-05-09T07:04:41;99402.19;;;25.22;26.95
64189;BME280;50493;50.970;10.082;2023-05-09T07:07:06;99402.72;;;26.12;24.36
64189;BME280;50493;50.970;10.082;2023-05-09T07:09:31;99399.25;;;27.91;23.01
64189;BME280;50493;50.970;10.082;2023-05-09T07:11:58;99406.63;;;27.30;23.41
64189;BME280;50493;50.970;10.082;2023-05-09T07:14:24;99400.69;;;27.27;22.69
64189;BME280;50493;50.970;10.082;2023-05-09T07:16:49;99396.22;;;26.36;24.53
64189;BME280;50493;50.970;10.082;2023-05-09T07:19:14;99393.47;;;26.47;23.78
64189;BME280;50493;50.970;10.082;2023-05-09T07:21:40;99391.94;;;27.34;23.04
64189;BME280;50493;50.970;10.082;2023-05-09T07:24:05;99397.56;;;27.80;23.60
64189;BME280;50493;50.970;10.082;2023-05-09T07:26:31;99384.47;;;28.24;22.95
64189;BME280;50493;50.970;10.082;2023-05-09T07:28:58;99402.56;;;24.29;26.59
64189;BME280;50493;50.970;10.082;2023-05-09T07:31:23;99383.63;;;20.53;32.48
64189;BME280;50493;50.970;10.082;2023-05-09T07:33:48;99383.53;;;23.04;30.03
64189;BME280;50493;50.970;10.082;2023-05-09T07:36:14;99384.19;;;23.43;28.80
64189;BME280;50493;50.970;10.082;2023-05-09T07:38:41;99376.34;;;22.17;31.07
64189;BME280;50493;50.970;10.082;2023-05-09T07:41:06;99371.38;;;24.41;27.39
64189;BME280;50493;50.970;10.082;2023-05-09T07:43:31;99359.72;;;24.97;27.11
64189;BME280;50493;50.970;10.082;2023-05-09T07:45:58;99361.59;;;26.23;25.22
64189;BME280;50493;50.970;10.082;2023-05-09T07:48:23;99351.66;;;26.35;26.00
64189;BME280;50493;50.970;10.082;2023-05-09T07:50:49;99359.72;;;22.39;31.00
64189;BME280;50493;50.970;10.082;2023-05-09T07:53:14;99357.09;;;22.64;30.79
64189;BME280;50493;50.970;10.082;2023-05-09T07:55:40;99356.19;;;22.26;31.76
64189;BME280;50493;50.970;10.082;2023-05-09T07:58:05;99353.22;;;22.31;30.68
64189;BME280;50493;50.970;10.082;2023-05-09T08:00:31;99348.06;;;21.50;32.33
64189;BME280;50493;50.970;10.082;2023-05-09T08:02:57;99338.53;;;22.38;31.24
64189;BME280;50493;50.970;10.082;2023-05-09T08:05:23;99339.81;;;21.94;33.81
64189;BME280;50493;50.970;10.082;2023-05-09T08:07:48;99335.13;;;22.36;31.62
64189;BME280;50493;50.970;10.082;2023-05-09T08:10:13;99338.75;;;21.70;32.88
64189;BME280;50493;50.970;10.082;2023-05-09T08:12:39;99327.00;;;22.99;31.03
64189;BME280;50493;50.970;10.082;2023-05-09T08:15:05;99324.25;;;21.36;34.23
64189;BME280;50493;50.970;10.082;2023-05-09T08:17:31;99309.69;;;23.29;29.88
64189;BME280;50493;50.970;10.082;2023-05-09T08:19:57;99309.34;;;23.92;30.44
64189;BME280;50493;50.970;10.082;2023-05-09T08:22:23;99308.88;;;25.93;27.36
64189;BME280;50493;50.970;10.082;2023-05-09T08:24:48;99302.06;;;25.57;26.96
64189;BME280;50493;50.970;10.082;2023-05-09T08:27:14;99299.22;;;21.26;32.66
64189;BME280;50493;50.970;10.082;2023-05-09T08:29:39;99287.91;;;24.60;29.27
64189;BME280;50493;50.970;10.082;2023-05-09T08:32:05;99286.31;;;25.85;26.84
64189;BME280;50493;50.970;10.082;2023-05-09T08:34:30;99291.41;;;24.71;28.29
64189;BME280;50493;50.970;10.082;2023-05-09T08:36:59;99286.41;;;25.53;26.77
64189;BME280;50493;50.970;10.082;2023-05-09T08:39:25;99286.44;;;23.42;30.67
64189;BME280;50493;50.970;10.082;2023-05-09T08:41:51;99290.06;;;22.70;32.63
64189;BME280;50493;50.970;10.082;2023-05-09T08:44:18;99279.78;;;23.48;30.75
64189;BME280;50493;50.970;10.082;2023-05-09T08:46:47;99280.22;;;23.77;30.72
64189;BME280;50493;50.970;10.082;2023-05-09T08:49:13;99273.44;;;23.73;30.80
64189;BME280;50493;50.970;10.082;2023-05-09T08:51:39;99278.59;;;22.57;32.88
64189;BME280;50493;50.970;10.082;2023-05-09T08:54:06;99271.25;;;21.20;35.26
64189;BME280;50493;50.970;10.082;2023-05-09T08:56:33;99277.19;;;22.27;33.60
64189;BME280;50493;50.970;10.082;2023-05-09T08:58:59;99272.94;;;22.24;33.29
64189;BME280;50493;50.970;10.082;2023-05-09T09:01:24;99281.28;;;21.55;33.89
64189;BME280;50493;50.970;10.082;2023-05-09T09:03:53;99273.25;;;21.69;34.35
64189;BME280;50493;50.970;10.082;2023-05-09T09:06:18;99277.63;;;22.33;33.77
64189;BME280;50493;50.970;10.082;2023-05-09T09:08:45;99266.34;;;22.54;33.17
64189;BME280;50493;50.970;10.082;2023-05-09T09:11:14;99266.78;;;22.72;32.85
64189;BME280;50493;50.970;10.082;2023-05-09T09:13:41;99269.47;;;21.33;34.39
64189;BME280;50493;50.970;10.082;2023-05-09T09:16:09;99260.75;;;21.44;35.23
64189;BME280;50493;50.970;10.082;2023-05-09T09:18:35;99262.47;;;21.97;32.59
64189;BME280;50493;50.970;10.082;2023-05-09T09:21:05;99247.66;;;21.15;34.97
64189;BME280;50493;50.970;10.082;2023-05-09T09:23:40;99248.09;;;21.99;33.19
64189;BME280;50493;50.970;10.082;2023-05-09T09:26:07;99232.84;;;23.22;33.16
64189;BME280;50493;50.970;10.082;2023-05-09T09:28:33;99232.50;;;23.50;30.00
64189;BME280;50493;50.970;10.082;2023-05-09T09:30:59;99241.13;;;22.71;33.69
64189;BME280;50493;50.970;10.082;2023-05-09T09:33:26;99235.53;;;23.34;31.59
64189;BME280;50493;50.970;10.082;2023-05-09T09:35:54;99226.81;;;23.66;28.94
64189;BME280;50493;50.970;10.082;2023-05-09T09:38:21;99224.72;;;23.35;31.98
64189;BME280;50493;50.970;10.082;2023-05-09T09:40:54;99215.91;;;24.03;29.82
64189;BME280;50493;50.970;10.082;2023-05-09T09:43:26;99220.03;;;23.96;30.89
64189;BME280;50493;50.970;10.082;2023-05-09T09:45:52;99222.03;;;21.53;31.64
64189;BME280;50493;50.970;10.082;2023-05-09T09:48:22;99215.22;;;22.73;32.35
64189;BME280;50493;50.970;10.082;2023-05-09T09:50:47;99207.91;;;23.80;29.83
64189;BME280;50493;50.970;10.082;2023-05-09T09:53:12;99200.44;;;22.69;32.82
64189;BME280;50493;50.970;10.082;2023-05-09T09:55:48;99197.22;;;23.69;31.65
64189;BME280;50493;50.970;10.082;2023-05-09T09:58:18;99196.09;;;25.45;27.56
64189;BME280;50493;50.970;10.082;2023-05-09T10:01:03;99186.06;;;24.95;29.57
64189;BME280;50493;50.970;10.082;2023-05-09T10:03:34;99187.47;;;21.40;32.38
64189;BME280;50493;50.970;10.082;2023-05-09T10:06:00;99193.16;;;20.82;36.07
64189;BME280;50493;50.970;10.082;2023-05-09T10:08:26;99171.13;;;22.20;34.02
64189;BME280;50493;50.970;10.082;2023-05-09T10:10:51;99180.16;;;24.38;28.52
64189;BME280;50493;50.970;10.082;2023-05-09T10:13:18;99179.78;;;20.16;37.97
64189;BME280;50493;50.970;10.082;2023-05-09T10:15:44;99176.88;;;20.34;38.69
64189;BME280;50493;50.970;10.082;2023-05-09T10:18:11;99168.38;;;21.85;35.06
64189;BME280;50493;50.970;10.082;2023-05-09T10:20:39;99161.66;;;20.63;37.00
64189;BME280;50493;50.970;10.082;2023-05-09T10:23:06;99157.28;;;21.67;36.79
64189;BME280;50493;50.970;10.082;2023-05-09T10:25:37;99148.97;;;21.96;36.49
64189;BME280;50493;50.970;10.082;2023-05-09T10:28:06;99136.19;;;22.96;34.38
64189;BME280;50493;50.970;10.082;2023-05-09T10:30:41;99135.66;;;23.27;34.71
64189;BME280;50493;50.970;10.082;2023-05-09T10:33:09;99135.38;;;23.86;32.82
64189;BME280;50493;50.970;10.082;2023-05-09T10:35:39;99129.41;;;24.38;31.04
64189;BME280;50493;50.970;10.082;2023-05-09T10:38:05;99130.28;;;23.83;31.63
64189;BME280;50493;50.970;10.082;2023-05-09T10:40:31;99124.25;;;23.25;34.23
64189;BME280;50493;50.970;10.082;2023-05-09T10:42:58;99123.69;;;23.99;33.32
64189;BME280;50493;50.970;10.082;2023-05-09T10:45:23;99120.81;;;24.55;31.46
64189;BME280;50493;50.970;10.082;2023-05-09T10:47:51;99113.59;;;24.35;30.68
64189;BME280;50493;50.970;10.082;2023-05-09T10:50:17;99118.31;;;25.06;31.01
64189;BME280;50493;50.970;10.082;2023-05-09T10:53:06;99109.91;;;24.68;29.40
64189;BME280;50493;50.970;10.082;2023-05-09T10:55:35;99106.44;;;25.61;30.07
64189;BME280;50493;50.970;10.082;2023-05-09T10:58:16;99097.78;;;25.98;28.04
64189;BME280;50493;50.970;10.082;2023-05-09T11:00:42;99089.00;;;26.84;27.49
64189;BME280;50493;50.970;10.082;2023-05-09T11:03:09;99089.41;;;24.15;29.42
64189;BME280;50493;50.970;10.082;2023-05-09T11:05:37;99085.16;;;23.69;30.86
64189;BME280;50493;50.970;10.082;2023-05-09T11:08:20;99082.94;;;23.97;31.93
64189;BME280;50493;50.970;10.082;2023-05-09T11:10:47;99077.84;;;25.61;28.96
64189;BME280;50493;50.970;10.082;2023-05-09T11:13:17;99059.97;;;24.05;33.87
64189;BME280;50493;50.970;10.082;2023-05-09T11:15:49;99063.25;;;23.98;30.41
64189;BME280;50493;50.970;10.082;2023-05-09T11:18:17;99047.31;;;26.22;30.04
64189;BME280;50493;50.970;10.082;2023-05-09T11:20:43;99052.84;;;26.98;29.66
64189;BME280;50493;50.970;10.082;2023-05-09T11:23:08;99041.41;;;26.38;27.52
64189;BME280;50493;50.970;10.082;2023-05-09T11:25:40;99052.34;;;22.78;32.29
64189;BME280;50493;50.970;10.082;2023-05-09T11:28:06;99035.78;;;25.73;27.91
64189;BME280;50493;50.970;10.082;2023-05-09T11:30:39;99032.94;;;24.83;31.46
64189;BME280;50493;50.970;10.082;2023-05-09T11:33:05;99031.75;;;24.76;30.20
64189;BME280;50493;50.970;10.082;2023-05-09T11:35:33;99030.34;;;24.30;29.53
64189;BME280;50493;50.970;10.082;2023-05-09T11:38:02;99031.59;;;23.49;33.07
64189;BME280;50493;50.970;10.082;2023-05-09T11:40:28;99020.97;;;24.35;28.54
64189;BME280;50493;50.970;10.082;2023-05-09T11:42:55;99022.09;;;23.24;31.98
64189;BME280;50493;50.970;10.082;2023-05-09T11:45:22;99017.91;;;22.05;30.68
64189;BME280;50493;50.970;10.082;2023-05-09T11:47:48;99010.09;;;22.96;33.00
64189;BME280;50493;50.970;10.082;2023-05-09T11:50:16;99007.53;;;22.13;37.16
64189;BME280;50493;50.970;10.082;2023-05-09T11:52:43;99008.28;;;22.27;34.05
64189;BME280;50493;50.970;10.082;2023-05-09T11:55:10;99009.81;;;22.65;32.78
64189;BME280;50493;50.970;10.082;2023-05-09T11:57:38;99006.16;;;21.72;32.76
64189;BME280;50493;50.970;10.082;2023-05-09T12:00:05;98994.31;;;23.27;31.62
64189;BME280;50493;50.970;10.082;2023-05-09T12:02:31;98999.22;;;23.10;30.12
64189;BME280;50493;50.970;10.082;2023-05-09T12:05:05;98986.50;;;24.53;33.38
64189;BME280;50493;50.970;10.082;2023-05-09T12:07:31;98979.81;;;24.38;33.16
64189;BME280;50493;50.970;10.082;2023-05-09T12:09:58;98981.31;;;24.31;32.59
64189;BME280;50493;50.970;10.082;2023-05-09T12:12:25;98978.25;;;22.13;36.00
64189;BME280;50493;50.970;10.082;2023-05-09T12:14:51;98975.31;;;22.41;35.10
64189;BME280;50493;50.970;10.082;2023-05-09T12:17:17;98978.44;;;24.01;32.50
64189;BME280;50493;50.970;10.082;2023-05-09T12:19:43;98964.59;;;24.90;30.10
64189;BME280;50493;50.970;10.082;2023-05-09T12:22:08;98972.09;;;24.66;35.75
64189;BME280;50493;50.970;10.082;2023-05-09T12:24:34;98964.31;;;24.63;29.97
64189;BME280;50493;50.970;10.082;2023-05-09T12:27:02;98954.69;;;25.12;27.93
64189;BME280;50493;50.970;10.082;2023-05-09T12:29:29;98948.38;;;24.82;35.81
64189;BME280;50493;50.970;10.082;2023-05-09T12:31:56;98946.75;;;25.81;29.70
64189;BME280;50493;50.970;10.082;2023-05-09T12:34:22;98940.66;;;25.88;27.94
64189;BME280;50493;50.970;10.082;2023-05-09T12:36:47;98939.28;;;24.95;33.84
64189;BME280;50493;50.970;10.082;2023-05-09T12:39:15;98943.25;;;23.43;31.56
64189;BME280;50493;50.970;10.082;2023-05-09T12:41:43;98931.59;;;23.76;32.71
64189;BME280;50493;50.970;10.082;2023-05-09T12:44:17;98935.31;;;23.20;32.56
64189;BME280;50493;50.970;10.082;2023-05-09T12:46:52;98935.03;;;24.51;31.98
64189;BME280;50493;50.970;10.082;2023-05-09T12:49:20;98934.13;;;25.03;35.05